Dunkirk, New York
Current Conditions -  °F | °C
As of 10:53 AM on Friday 28 Nov 2014 (Local Time) from KDKK Reporting Station
Light Snow Light Snow  
Wind Chill: 14°   Ceiling: 3600
Heat Index: 25°   Visibility: 9mi
Dew Point: 14°   Wind: 12mph
Humidity: 63%   Direction: 280°W
Pressure: 30.29"   Gusts: 17mph
Location:  42.49°N, 79.34°W
Report Text: KDKK 281553Z AUTO 28010G15KT 9SM -SN OVC036 M04/M10 A3029 RMK AO2 SNB41 SLP267 P0000 T10391100
Loading
Personal Weather Stations






























Interactive Weather Map New forecast layout! Learn more

10-Day Weather Forecast

Advertisements
Track Severe Weather on mobile